Time;durP1;ratioP1;P1;durP2;ratioP2;P2;SDS_P1;SDS_P2;PMS_P1;PMS_P2;Temp;Humidity;BMP_temperature;BMP_pressure;BME280_temperature;BME280_humidity;BME280_pressure;Samples;Min_cycle;Max_cycle;Signal;HPM_P1;HPM_P2
2023/09/21 00:01:28;;;;;;;8.90;4.80;;;;;;;12.76;100.00;98839.66;273176;1267;946426;-84
2023/09/21 00:07:31;;;;;;;6.50;4.60;;;;;;;12.70;100.00;98837.86;274201;1274;22207;-84
2023/09/21 00:13:53;;;;;;;9.60;6.00;;;;;;;12.68;100.00;98839.66;273978;1254;22185;-84
2023/09/21 00:19:54;;;;;;;7.60;5.00;;;;;;;12.74;100.00;98834.73;272332;1267;22358;-84
2023/09/21 00:26:20;;;;;;;7.60;4.90;;;;;;;12.71;100.00;98830.48;271523;1267;22481;-84
2023/09/21 00:40:13;;;;;;;13.00;5.70;;;;;;;12.52;100.00;98819.42;271817;1269;23922;-83
2023/09/21 00:46:35;;;;;;;8.20;4.90;;;;;;;12.46;100.00;98811.97;271592;1267;23448;-84
2023/09/21 00:52:54;;;;;;;9.00;4.70;;;;;;;12.39;100.00;98806.24;273629;1269;22290;-84
2023/09/21 00:58:57;;;;;;;8.30;5.60;;;;;;;12.31;100.00;98808.89;272425;1270;22591;-83
2023/09/21 01:04:59;;;;;;;13.30;5.70;;;;;;;12.26;100.00;98810.38;271267;1267;22431;-83
2023/09/21 01:11:40;;;;;;;8.70;4.70;;;;;;;12.17;100.00;98809.56;271867;1267;22482;-83
2023/09/21 01:18:04;;;;;;;10.20;5.40;;;;;;;12.09;100.00;98803.21;273721;1267;22385;-83
2023/09/21 01:24:07;;;;;;;11.80;5.60;;;;;;;12.06;100.00;98797.73;273698;1269;22355;-83
2023/09/21 01:30:12;;;;;;;10.10;5.40;;;;;;;12.03;100.00;98793.80;273538;1266;22542;-83
2023/09/21 01:36:55;;;;;;;9.20;5.30;;;;;;;11.98;100.00;98786.95;273674;1269;22188;-84
2023/09/21 01:43:35;;;;;;;8.80;5.00;;;;;;;11.89;100.00;98777.92;273973;1270;22186;-83
2023/09/21 01:49:37;;;;;;;9.30;6.20;;;;;;;11.88;100.00;98765.70;271877;1267;25080;-83
2023/09/21 01:56:03;;;;;;;6.30;4.80;;;;;;;11.84;100.00;98762.02;270993;1266;25574;-83
2023/09/21 02:02:26;;;;;;;14.40;6.20;;;;;;;11.80;100.00;98761.30;273812;1273;22364;-83
2023/09/21 02:08:49;;;;;;;7.80;5.10;;;;;;;11.77;100.00;98758.70;273782;1269;22196;-83
2023/09/21 02:23:00;;;;;;;8.60;5.30;;;;;;;11.68;100.00;98750.98;273846;1267;22816;-83
2023/09/21 02:30:01;;;;;;;7.80;4.50;;;;;;;11.63;100.00;98740.86;273912;1269;22184;-83
2023/09/21 02:36:45;;;;;;;10.70;5.30;;;;;;;11.62;100.00;98739.60;270929;1267;22677;-83
2023/09/21 02:43:29;;;;;;;11.20;5.60;;;;;;;11.55;100.00;98732.13;272359;1267;22574;-82
2023/09/21 02:50:14;;;;;;;15.10;6.10;;;;;;;11.49;100.00;98732.20;273016;1267;22519;-84
2023/09/21 02:56:59;;;;;;;10.00;5.30;;;;;;;11.44;100.00;98731.48;273879;1268;23795;-83
2023/09/21 03:03:12;;;;;;;9.80;6.00;;;;;;;11.39;100.00;98727.61;272499;1268;22570;-83
2023/09/21 03:09:59;;;;;;;14.10;6.30;;;;;;;11.39;100.00;98723.93;272336;1270;22242;-83
2023/09/21 03:16:19;;;;;;;10.80;6.80;;;;;;;11.35;100.00;98719.38;273768;1267;22380;-83
2023/09/21 03:22:49;;;;;;;11.30;6.40;;;;;;;11.34;100.00;98716.88;273951;1267;22373;-83
2023/09/21 03:29:12;;;;;;;10.90;6.90;;;;;;;11.34;100.00;98717.58;273979;1267;22431;-83
2023/09/21 03:35:14;;;;;;;12.30;7.80;;;;;;;11.35;100.00;98715.23;273869;1267;22977;-83
2023/09/21 03:41:36;;;;;;;15.40;9.10;;;;;;;11.34;100.00;98709.12;273913;1270;22211;-83
2023/09/21 03:47:40;;;;;;;15.70;9.10;;;;;;;11.32;100.00;98702.69;273758;1269;22261;-83
2023/09/21 03:54:10;;;;;;;11.10;8.20;;;;;;;11.31;100.00;98701.60;273906;1267;22207;-83
2023/09/21 04:06:26;;;;;;;12.80;9.10;;;;;;;11.25;100.00;98687.08;273525;1267;25362;-83
2023/09/21 04:12:39;;;;;;;17.00;9.90;;;;;;;11.20;100.00;98680.48;272303;1267;22527;-83
2023/09/21 04:19:10;;;;;;;16.80;10.70;;;;;;;11.17;100.00;98679.00;271714;1267;22539;-83
2023/09/21 04:26:26;;;;;;;14.40;10.10;;;;;;;11.20;100.00;98680.10;274079;1267;22178;-83
2023/09/21 04:32:50;;;;;;;17.70;10.30;;;;;;;11.25;100.00;98674.16;274082;1272;22962;-83
2023/09/21 04:38:54;;;;;;;19.80;10.40;;;;;;;11.27;100.00;98670.73;273776;1269;22223;-83
2023/09/21 04:45:12;;;;;;;13.10;8.70;;;;;;;11.30;100.00;98672.06;272041;1269;23804;-83
2023/09/21 04:51:15;;;;;;;13.50;7.70;;;;;;;11.30;100.00;98675.20;271768;1267;23937;-83
2023/09/21 04:57:28;;;;;;;9.90;6.50;;;;;;;11.26;100.00;98676.83;271386;1264;23754;-84
2023/09/21 05:03:32;;;;;;;13.10;6.00;;;;;;;11.31;100.00;98674.58;270578;1270;22554;-83
2023/09/21 05:09:34;;;;;;;9.40;5.30;;;;;;;11.49;100.00;98668.59;270862;1267;23373;-84
2023/09/21 05:15:36;;;;;;;6.00;4.90;;;;;;;11.77;100.00;98670.86;272861;1269;22375;-83
2023/09/21 05:21:38;;;;;;;10.40;4.90;;;;;;;11.96;100.00;98664.38;274002;1273;22340;-83
2023/09/21 05:27:43;;;;;;;5.30;4.00;;;;;;;12.17;100.00;98659.98;271157;1267;22534;-83
2023/09/21 05:33:53;;;;;;;11.40;6.70;;;;;;;12.45;100.00;98663.02;272338;1270;22398;-85
2023/09/21 05:39:55;;;;;;;7.50;5.70;;;;;;;12.89;100.00;98665.97;273433;1267;23669;-85
2023/09/21 05:45:57;;;;;;;7.80;5.10;;;;;;;13.37;100.00;98669.31;273523;1267;22395;-86
2023/09/21 05:52:38;;;;;;;6.60;4.40;;;;;;;13.93;100.00;98667.86;273871;1267;22176;-85
2023/09/21 05:58:41;;;;;;;8.20;5.30;;;;;;;14.51;100.00;98662.41;273652;1267;22336;-85
2023/09/21 06:04:43;;;;;;;7.60;4.20;;;;;;;15.06;100.00;98664.27;273931;1267;22392;-85
2023/09/21 06:10:46;;;;;;;8.50;4.60;;;;;;;15.33;100.00;98664.70;273763;1267;22396;-85
2023/09/21 06:17:13;;;;;;;5.60;4.40;;;;;;;15.48;100.00;98659.80;273693;1269;22375;-85
2023/09/21 06:23:17;;;;;;;7.20;4.60;;;;;;;15.67;100.00;98657.40;272930;1267;22437;-85
2023/09/21 06:29:37;;;;;;;10.10;4.00;;;;;;;15.93;100.00;98649.84;273551;1267;22225;-82
2023/09/21 06:36:14;;;;;;;11.40;3.90;;;;;;;16.16;100.00;98651.27;274092;1267;22414;-82
2023/09/21 06:42:48;;;;;;;5.70;3.60;;;;;;;16.46;100.00;98646.27;274044;1274;22219;-82
2023/09/21 06:49:01;;;;;;;6.80;3.20;;;;;;;16.77;100.00;98641.73;273727;1270;22369;-82
2023/09/21 07:11:20;;;;;;;11.20;3.00;;;;;;;17.87;100.00;98636.46;273917;1269;22244;-83
2023/09/21 07:17:27;;;;;;;8.90;2.90;;;;;;;18.12;100.00;98630.48;273821;1270;22178;-84
2023/09/21 07:23:29;;;;;;;4.60;1.80;;;;;;;18.41;100.00;98630.29;273887;1259;22928;-82
2023/09/21 07:29:33;;;;;;;4.40;2.20;;;;;;;18.71;100.00;98627.67;273846;1269;22187;-82
2023/09/21 07:35:36;;;;;;;5.50;1.80;;;;;;;19.08;100.00;98614.44;272833;1269;22202;-85
2023/09/21 07:41:40;;;;;;;5.40;1.80;;;;;;;19.60;100.00;98608.45;272886;1268;22284;-83
2023/09/21 07:48:32;;;;;;;3.20;1.40;;;;;;;20.16;100.00;98611.09;273927;1270;22278;-83
2023/09/21 07:54:54;;;;;;;2.70;1.40;;;;;;;20.77;100.00;98605.63;273712;1269;22417;-83
2023/09/21 08:00:56;;;;;;;6.20;2.10;;;;;;;21.29;100.00;98607.64;273933;1269;22393;-83
2023/09/21 08:07:23;;;;;;;5.00;2.40;;;;;;;21.76;100.00;98601.75;273797;1267;22209;-83
2023/09/21 08:13:33;;;;;;;5.90;1.90;;;;;;;22.12;100.00;98599.39;273916;1270;22538;-83
2023/09/21 08:20:39;;;;;;;3.20;2.20;;;;;;;22.28;100.00;98592.83;273897;1275;22274;-84
2023/09/21 08:26:41;;;;;;;6.60;2.70;;;;;;;22.44;100.00;98592.39;272240;1269;23756;-84
2023/09/21 08:33:34;;;;;;;5.80;2.60;;;;;;;22.62;100.00;98591.16;272306;1270;25372;-84
2023/09/21 08:39:56;;;;;;;7.00;2.20;;;;;;;22.87;100.00;98586.28;272396;1269;22443;-83
2023/09/21 08:46:39;;;;;;;4.90;2.10;;;;;;;23.26;100.00;98572.20;273858;1275;22188;-83
2023/09/21 08:52:48;;;;;;;3.40;0.80;;;;;;;23.78;98.24;98573.15;272833;1270;22730;-83
2023/09/21 08:59:42;;;;;;;4.60;1.20;;;;;;;24.17;92.81;98573.86;272630;1269;22212;-84
2023/09/21 09:06:04;;;;;;;5.40;1.20;;;;;;;24.68;81.45;98566.94;273147;1269;22387;-86
2023/09/21 09:12:41;;;;;;;4.70;0.90;;;;;;;25.28;79.24;98558.48;273911;1268;22340;-84
2023/09/21 09:18:44;;;;;;;;;;;;;;;26.22;81.14;98561.77;273839;1268;23277;-84
2023/09/21 09:24:58;;;;;;;3.20;1.50;;;;;;;27.06;79.78;98557.65;273681;1269;23227;-85
2023/09/21 09:30:59;;;;;;;2.10;1.20;;;;;;;27.64;77.29;98558.55;272823;1269;22180;-84
2023/09/21 09:37:46;;;;;;;2.30;1.50;;;;;;;28.06;75.62;98558.59;273701;1268;22192;-83
2023/09/21 09:44:44;;;;;;;1.90;1.10;;;;;;;28.67;72.22;98557.92;273898;1268;22193;-84
2023/09/21 09:51:26;;;;;;;4.70;1.10;;;;;;;28.78;68.19;98556.27;273974;1260;22156;-84
2023/09/21 09:58:32;;;;;;;2.50;0.90;;;;;;;29.23;65.81;98546.33;273926;1269;23222;-84
2023/09/21 10:05:12;;;;;;;3.90;1.10;;;;;;;29.55;62.29;98539.95;273028;1269;22653;-85
2023/09/21 10:11:15;;;;;;;2.50;1.20;;;;;;;29.44;59.20;98532.45;272052;1268;24331;-83
2023/09/21 10:17:45;;;;;;;2.00;1.10;;;;;;;29.36;56.25;98521.02;270654;1269;22587;-83
2023/09/21 10:24:58;;;;;;;2.90;1.00;;;;;;;29.32;55.66;98511.27;272140;1268;22448;-84
2023/09/21 10:32:00;;;;;;;4.20;1.70;;;;;;;29.09;54.17;98507.83;274078;1274;22199;-84
2023/09/21 10:38:13;;;;;;;5.60;2.00;;;;;;;29.03;54.19;98501.00;273864;1269;22508;-84
2023/09/21 10:45:16;;;;;;;5.90;1.70;;;;;;;29.27;55.15;98497.95;273948;1269;22175;-84
2023/09/21 10:51:53;;;;;;;4.10;1.20;;;;;;;29.53;55.39;98488.05;271128;1259;22422;-84
2023/09/21 10:58:21;;;;;;;4.20;1.30;;;;;;;29.44;54.28;98476.27;272897;1267;22183;-85
2023/09/21 11:04:23;;;;;;;2.50;1.20;;;;;;;29.15;53.91;98459.83;273886;1269;22185;-83
2023/09/21 11:10:25;;;;;;;2.50;1.10;;;;;;;29.07;53.55;98451.27;274030;1270;22176;-83
2023/09/21 11:16:27;;;;;;;4.00;1.40;;;;;;;28.84;52.33;98446.94;273861;1269;22346;-84
2023/09/21 11:22:29;;;;;;;4.70;1.20;;;;;;;28.41;50.89;98438.80;273988;1270;22117;-85
2023/09/21 11:29:16;;;;;;;2.30;1.30;;;;;;;28.11;51.26;98428.58;272558;1269;22543;-83
2023/09/21 11:35:19;;;;;;;2.60;1.50;;;;;;;27.94;51.65;98422.38;270771;1268;22532;-83
2023/09/21 11:41:21;;;;;;;1.90;1.30;;;;;;;27.63;51.21;98414.95;270052;1269;22529;-83
2023/09/21 11:47:25;;;;;;;9.80;2.90;;;;;;;27.37;51.81;98406.06;270220;1269;22695;-83
2023/09/21 11:53:28;;;;;;;3.00;1.30;;;;;;;27.30;52.66;98400.65;270714;1269;22360;-83
2023/09/21 11:59:32;;;;;;;2.50;1.40;;;;;;;27.14;52.03;98390.00;264860;1263;7407783;-84
2023/09/21 12:05:34;;;;;;;3.50;1.30;;;;;;;26.96;52.69;98381.74;272601;1269;22808;-83
2023/09/21 12:11:35;;;;;;;3.10;1.40;;;;;;;26.85;53.29;98373.25;270934;1267;22579;-85
2023/09/21 12:17:39;;;;;;;1.70;1.30;;;;;;;26.70;53.44;98365.31;271431;1267;22277;-84
2023/09/21 12:24:02;;;;;;;2.20;1.20;;;;;;;26.53;53.31;98357.48;270338;1268;22482;-84
2023/09/21 12:30:14;;;;;;;7.50;2.70;;;;;;;26.40;53.82;98349.15;270927;1269;22552;-84
2023/09/21 12:36:42;;;;;;;5.20;2.10;;;;;;;26.30;54.08;98341.25;271123;1257;23873;-83
2023/09/21 12:43:11;;;;;;;1.70;1.20;;;;;;;26.21;54.71;98338.98;270738;1269;22565;-85
2023/09/21 12:50:03;;;;;;;4.40;1.60;;;;;;;26.18;53.77;98329.81;274051;1270;22261;-85
2023/09/21 12:56:06;;;;;;;4.50;1.40;;;;;;;26.23;53.91;98323.70;272279;1269;24274;-84
2023/09/21 13:02:29;;;;;;;2.10;1.10;;;;;;;26.23;53.64;98320.95;270995;1270;23542;-83
2023/09/21 13:08:31;;;;;;;3.30;1.50;;;;;;;26.17;54.02;98312.35;271612;1269;22467;-85
2023/09/21 13:14:35;;;;;;;2.50;1.50;;;;;;;26.19;52.01;98300.80;273882;1252;22193;-85
2023/09/21 13:21:01;;;;;;;3.30;2.10;;;;;;;26.28;50.26;98294.56;273911;1273;22201;-84
2023/09/21 13:27:03;;;;;;;;;;;;;;;26.28;48.57;98283.80;274052;1269;22475;-84
2023/09/21 13:41:48;;;;;;;2.60;2.10;;;;;;;26.25;48.06;98272.81;273899;1269;23366;-86
2023/09/21 13:48:24;;;;;;;5.50;2.40;;;;;;;26.25;48.21;98266.73;273823;1272;22137;-84
2023/09/21 13:55:17;;;;;;;5.30;2.20;;;;;;;26.16;48.10;98263.90;273890;1272;23218;-85
2023/09/21 14:01:20;;;;;;;3.10;1.90;;;;;;;26.07;47.27;98262.40;273529;1270;22537;-84
2023/09/21 14:07:47;;;;;;;2.80;1.80;;;;;;;26.08;46.49;98257.41;271231;1268;22557;-86
2023/09/21 14:13:49;;;;;;;3.40;2.10;;;;;;;26.08;46.31;98255.73;270771;1269;22391;-88
2023/09/21 14:20:34;;;;;;;4.10;1.90;;;;;;;26.04;46.90;98254.66;274135;1256;23144;-84
2023/09/21 14:27:39;;;;;;;2.00;1.50;;;;;;;25.80;47.42;98248.80;273956;1269;22176;-85
2023/09/21 14:34:33;;;;;;;2.90;2.30;;;;;;;25.71;47.25;98241.98;273942;1275;22245;-84
2023/09/21 14:40:57;;;;;;;4.60;2.00;;;;;;;25.66;47.36;98239.02;274041;1270;22466;-84
2023/09/21 14:47:22;;;;;;;3.20;1.60;;;;;;;25.46;48.15;98241.67;272683;1269;22276;-85
2023/09/21 14:53:32;;;;;;;4.40;1.90;;;;;;;25.14;49.65;98245.03;273164;1269;23157;-85
2023/09/21 14:59:34;;;;;;;2.80;1.90;;;;;;;24.81;50.97;98242.50;274065;1269;22198;-86
2023/09/21 15:05:36;;;;;;;4.20;2.30;;;;;;;24.47;52.06;98246.97;273512;1269;22762;-85
2023/09/21 15:11:37;;;;;;;5.40;2.10;;;;;;;24.25;53.26;98240.31;273643;1267;22471;-85
2023/09/21 15:17:39;;;;;;;3.30;2.00;;;;;;;24.02;54.39;98239.77;273855;1252;22371;-85
2023/09/21 15:23:42;;;;;;;3.60;2.40;;;;;;;23.81;55.36;98239.27;273923;1265;22277;-86
2023/09/21 15:30:04;;;;;;;4.80;2.10;;;;;;;23.70;54.95;98233.54;273944;1269;22263;-86
2023/09/21 15:36:08;;;;;;;3.70;1.90;;;;;;;23.69;55.04;98229.14;274070;1275;22260;-87
2023/09/21 15:42:51;;;;;;;3.10;1.80;;;;;;;23.59;54.85;98227.66;274062;1272;22969;-85
2023/09/21 15:49:11;;;;;;;3.30;1.70;;;;;;;23.45;54.76;98228.59;272756;1269;22557;-85
2023/09/21 15:55:13;;;;;;;4.50;1.80;;;;;;;23.29;54.83;98227.88;273041;1269;22209;-87
2023/09/21 16:01:24;;;;;;;2.40;1.50;;;;;;;23.14;54.88;98227.46;273944;1270;22258;-85
2023/09/21 16:08:16;;;;;;;4.40;1.80;;;;;;;23.00;55.02;98235.84;274067;1269;22261;-86
2023/09/21 16:14:19;;;;;;;3.90;1.90;;;;;;;22.77;55.70;98245.65;274092;1272;23683;-85
2023/09/21 16:20:21;;;;;;;4.20;2.10;;;;;;;22.64;56.10;98240.29;273906;1268;22216;-85
2023/09/21 16:26:58;;;;;;;4.30;2.10;;;;;;;22.51;56.47;98226.27;273951;1269;22193;-86
2023/09/21 16:33:40;;;;;;;5.70;2.20;;;;;;;22.36;56.89;98222.42;273545;1260;22199;-85
2023/09/21 16:40:05;;;;;;;4.40;1.70;;;;;;;22.12;59.02;98224.31;273926;1269;23625;-85
2023/09/21 16:46:07;;;;;;;3.90;2.60;;;;;;;21.85;60.56;98221.89;273233;1264;22526;-85
2023/09/21 16:52:09;;;;;;;8.80;3.40;;;;;;;21.53;61.47;98217.48;271288;1269;22202;-86
2023/09/21 16:59:02;;;;;;;5.10;3.10;;;;;;;21.37;63.28;98210.62;271269;1260;22927;-85
2023/09/21 17:05:25;;;;;;;7.90;2.80;;;;;;;21.01;64.62;98206.55;271343;1262;24241;-86
2023/09/21 17:11:29;;;;;;;9.00;3.20;;;;;;;20.79;66.13;98208.59;271731;1268;22657;-85
2023/09/21 17:17:44;;;;;;;4.50;2.60;;;;;;;20.71;66.46;98206.89;270957;1263;22574;-86
2023/09/21 17:23:47;;;;;;;4.40;2.80;;;;;;;20.71;66.20;98201.79;272495;1269;23134;-86
2023/09/21 17:30:12;;;;;;;6.30;2.60;;;;;;;20.99;65.60;98195.92;273817;1265;22263;-86
2023/09/21 17:36:44;;;;;;;5.40;2.70;;;;;;;21.21;65.38;98200.21;274035;1270;22204;-86
2023/09/21 17:42:46;;;;;;;3.40;2.40;;;;;;;21.30;65.26;98203.85;273985;1272;22197;-86
2023/09/21 17:48:49;;;;;;;6.40;2.50;;;;;;;21.23;66.07;98209.82;273719;1269;24317;-86
2023/09/21 17:55:36;;;;;;;5.90;2.50;;;;;;;21.20;65.64;98215.42;273798;1270;22197;-85
2023/09/21 18:03:27;;;;;;;5.10;2.40;;;;;;;21.29;65.42;98209.08;274021;1275;22174;-85
2023/09/21 18:10:37;;;;;;;5.70;2.50;;;;;;;21.35;65.03;98210.81;273909;1272;22194;-85
2023/09/21 18:17:49;;;;;;;4.70;2.50;;;;;;;21.35;64.80;98215.98;273186;1272;22219;-85
2023/09/21 18:24:17;;;;;;;5.60;3.00;;;;;;;21.33;64.68;98222.41;273109;1274;23326;-86
2023/09/21 18:30:19;;;;;;;4.80;2.90;;;;;;;21.27;65.07;98219.45;272981;1273;22422;-85
2023/09/21 18:36:22;;;;;;;6.60;2.50;;;;;;;21.13;66.31;98220.69;273123;1276;23354;-86
2023/09/21 18:42:23;;;;;;;5.70;2.70;;;;;;;20.90;67.59;98222.52;272435;1270;23091;-86
2023/09/21 18:49:06;;;;;;;7.10;3.10;;;;;;;20.73;69.16;98223.23;265805;1269;10001790;-85
2023/09/21 18:55:52;;;;;;;7.40;2.60;;;;;;;20.49;71.20;98222.49;273892;1268;23372;-85
2023/09/21 19:02:10;;;;;;;9.40;3.50;;;;;;;20.17;72.33;98221.53;273763;1269;22175;-86
2023/09/21 19:08:53;;;;;;;7.00;3.20;;;;;;;19.93;71.44;98216.99;273952;1272;23198;-86
2023/09/21 19:15:19;;;;;;;12.00;3.30;;;;;;;20.00;71.08;98220.70;273985;1272;22177;-85
2023/09/21 19:21:42;;;;;;;4.60;2.60;;;;;;;20.06;71.84;98218.63;273907;1270;22267;-86
2023/09/21 19:27:47;;;;;;;6.30;3.10;;;;;;;19.94;73.27;98214.71;273855;1272;22187;-85
2023/09/21 19:34:34;;;;;;;4.00;2.70;;;;;;;19.71;74.07;98216.27;273902;1269;22205;-86
2023/09/21 19:41:41;;;;;;;12.40;3.10;;;;;;;19.53;74.42;98215.84;273922;1269;22201;-86
2023/09/21 19:47:43;;;;;;;4.50;2.10;;;;;;;19.49;75.82;98210.98;273429;1268;23446;-85
2023/09/21 19:53:47;;;;;;;6.10;2.60;;;;;;;19.40;77.04;98207.52;273602;1269;23764;-86
2023/09/21 19:59:49;;;;;;;5.30;2.90;;;;;;;19.38;75.98;98200.50;273112;1269;24222;-85
2023/09/21 20:06:16;;;;;;;6.30;2.90;;;;;;;19.50;75.18;98193.83;271887;1268;22611;-85
2023/09/21 20:12:18;;;;;;;5.10;3.00;;;;;;;19.54;74.84;98189.08;272295;1269;22544;-85
2023/09/21 20:18:45;;;;;;;5.90;3.90;;;;;;;19.54;74.73;98189.33;273484;1270;22230;-86
2023/09/21 20:24:55;;;;;;;9.20;3.70;;;;;;;19.59;74.67;98177.70;274021;1272;22160;-86
2023/09/21 20:30:57;;;;;;;5.60;3.60;;;;;;;19.62;74.53;98173.60;273015;1269;22553;-86
2023/09/21 20:36:59;;;;;;;5.50;3.60;;;;;;;19.65;74.24;98167.05;272149;1270;22539;-84
2023/09/21 20:43:30;;;;;;;5.10;3.40;;;;;;;19.74;73.70;98158.95;270158;1268;23029;-86
2023/09/21 20:49:35;;;;;;;5.30;3.50;;;;;;;19.85;72.90;98152.95;270224;1269;22523;-82
2023/09/21 20:55:36;;;;;;;5.30;3.10;;;;;;;19.98;72.20;98155.08;270201;1269;24341;-85
2023/09/21 21:01:40;;;;;;;5.40;3.20;;;;;;;20.09;71.60;98157.77;270450;1269;22517;-86
2023/09/21 21:07:42;;;;;;;5.50;3.40;;;;;;;20.15;71.26;98147.35;270426;1269;22545;-84
2023/09/21 21:14:35;;;;;;;7.50;3.50;;;;;;;20.16;71.05;98131.98;273273;1272;22168;-85
2023/09/21 21:20:39;;;;;;;6.40;3.00;;;;;;;20.18;71.11;98119.29;272607;1270;23883;-86
2023/09/21 21:27:03;;;;;;;6.40;3.40;;;;;;;20.21;70.78;98120.42;272843;1269;22952;-84
2023/09/21 21:33:08;;;;;;;6.00;3.30;;;;;;;20.21;70.73;98124.32;273923;1270;22383;-87
2023/09/21 21:39:33;;;;;;;4.80;3.10;;;;;;;20.15;70.78;98120.40;274075;1275;23203;-86
2023/09/21 21:45:38;;;;;;;9.40;3.30;;;;;;;20.07;70.93;98112.05;272838;1269;22263;-87
2023/09/21 21:52:01;;;;;;;5.20;2.90;;;;;;;19.97;71.39;98107.33;271153;1269;22179;-86
2023/09/21 21:58:31;;;;;;;6.80;2.90;;;;;;;19.85;71.56;98102.73;273963;1269;22182;-87
2023/09/21 22:05:24;;;;;;;5.70;3.70;;;;;;;19.70;71.92;98098.31;274046;1275;22288;-86
2023/09/21 22:12:54;;;;;;;5.10;3.10;;;;;;;19.52;72.57;98095.73;273210;1275;22313;-86
2023/09/21 22:18:56;;;;;;;7.10;3.20;;;;;;;19.39;73.22;98090.58;271217;1272;22480;-86
2023/09/21 22:33:00;;;;;;;4.90;2.70;;;;;;;19.41;73.92;98085.15;270340;1269;22669;-86
2023/09/21 22:39:29;;;;;;;5.00;3.00;;;;;;;19.37;73.99;98078.20;270651;1269;22513;-86
2023/09/21 22:46:02;;;;;;;4.90;3.20;;;;;;;19.30;74.33;98069.35;270165;1270;22545;-87
2023/09/21 22:52:04;;;;;;;5.40;3.10;;;;;;;19.22;74.66;98067.58;270326;1269;22558;-87
2023/09/21 22:58:06;;;;;;;6.90;3.20;;;;;;;18.99;75.93;98068.24;270193;1269;22538;-86
2023/09/21 23:04:08;;;;;;;6.80;3.60;;;;;;;18.61;76.96;98071.11;270464;1269;22521;-86
2023/09/21 23:10:34;;;;;;;7.70;2.90;;;;;;;18.40;78.33;98068.06;270802;1272;25239;-86
2023/09/21 23:16:36;;;;;;;6.20;3.40;;;;;;;18.14;79.05;98068.23;270921;1269;24360;-85
2023/09/21 23:23:20;;;;;;;4.90;3.20;;;;;;;17.84;80.01;98073.98;271093;1269;22209;-87
2023/09/21 23:29:49;;;;;;;5.40;3.50;;;;;;;17.64;80.76;98066.30;274069;1252;22174;-86
2023/09/21 23:35:53;;;;;;;8.30;3.50;;;;;;;17.47;81.62;98057.67;273281;1270;22393;-87
2023/09/21 23:41:54;;;;;;;7.10;3.60;;;;;;;17.30;82.64;98058.75;271537;1269;22476;-86
2023/09/21 23:47:56;;;;;;;6.20;2.60;;;;;;;17.09;83.65;98059.77;273667;1273;22329;-86
2023/09/21 23:53:58;;;;;;;6.30;3.70;;;;;;;16.89;84.50;98050.09;273713;1269;22876;-87
